sensor_id;sensor_type;location;lat;lon;timestamp;pressure;altitude;pressure_sealevel;temperature;humidity
22862;BME280;11598;50.652;6.172;2023-07-24T00:01:53;95621.25;;;15.12;100.00
22862;BME280;11598;50.652;6.172;2023-07-24T00:11:54;95616.97;;;15.11;100.00
22862;BME280;11598;50.652;6.172;2023-07-24T00:21:54;95609.94;;;15.12;100.00
22862;BME280;11598;50.652;6.172;2023-07-24T00:31:54;95598.19;;;15.08;100.00
22862;BME280;11598;50.652;6.172;2023-07-24T00:41:55;95582.31;;;15.01;100.00
22862;BME280;11598;50.652;6.172;2023-07-24T00:51:55;95570.69;;;14.95;100.00
22862;BME280;11598;50.652;6.172;2023-07-24T01:01:56;95551.25;;;14.98;100.00
22862;BME280;11598;50.652;6.172;2023-07-24T01:32:30;95546.19;;;15.05;100.00
22862;BME280;11598;50.652;6.172;2023-07-24T01:42:31;95522.47;;;15.06;100.00
22862;BME280;11598;50.652;6.172;2023-07-24T01:52:31;95508.09;;;15.02;100.00
22862;BME280;11598;50.652;6.172;2023-07-24T02:02:32;95480.31;;;14.93;100.00
22862;BME280;11598;50.652;6.172;2023-07-24T02:12:32;95471.69;;;14.84;100.00
22862;BME280;11598;50.652;6.172;2023-07-24T02:22:32;95457.13;;;14.82;100.00
22862;BME280;11598;50.652;6.172;2023-07-24T02:32:32;95456.63;;;14.78;100.00
22862;BME280;11598;50.652;6.172;2023-07-24T02:42:33;95439.81;;;14.72;100.00
22862;BME280;11598;50.652;6.172;2023-07-24T03:02:42;95412.31;;;14.44;100.00
22862;BME280;11598;50.652;6.172;2023-07-24T03:12:42;95425.56;;;14.34;100.00
22862;BME280;11598;50.652;6.172;2023-07-24T03:22:43;95440.09;;;14.36;100.00
22862;BME280;11598;50.652;6.172;2023-07-24T03:32:43;95410.72;;;14.43;100.00
22862;BME280;11598;50.652;6.172;2023-07-24T03:42:43;95396.50;;;14.45;100.00
22862;BME280;11598;50.652;6.172;2023-07-24T03:52:43;95413.47;;;14.41;100.00
22862;BME280;11598;50.652;6.172;2023-07-24T04:02:44;95397.97;;;14.31;100.00
22862;BME280;11598;50.652;6.172;2023-07-24T04:12:44;95390.63;;;14.19;100.00
22862;BME280;11598;50.652;6.172;2023-07-24T04:22:45;95399.75;;;14.06;100.00
22862;BME280;11598;50.652;6.172;2023-07-24T04:32:45;95394.84;;;14.03;100.00
22862;BME280;11598;50.652;6.172;2023-07-24T04:42:46;95415.09;;;14.17;100.00
22862;BME280;11598;50.652;6.172;2023-07-24T04:52:46;95423.91;;;14.25;100.00
22862;BME280;11598;50.652;6.172;2023-07-24T05:02:46;95436.34;;;14.47;100.00
22862;BME280;11598;50.652;6.172;2023-07-24T05:12:47;95440.44;;;14.50;100.00
22862;BME280;11598;50.652;6.172;2023-07-24T05:22:47;95451.72;;;14.67;100.00
22862;BME280;11598;50.652;6.172;2023-07-24T05:32:47;95455.47;;;15.05;100.00
22862;BME280;11598;50.652;6.172;2023-07-24T05:42:48;95435.63;;;15.27;100.00
22862;BME280;11598;50.652;6.172;2023-07-24T05:52:48;95438.38;;;15.26;100.00
22862;BME280;11598;50.652;6.172;2023-07-24T06:02:48;95450.81;;;15.23;100.00
22862;BME280;11598;50.652;6.172;2023-07-24T06:12:48;95445.44;;;15.25;100.00
22862;BME280;11598;50.652;6.172;2023-07-24T06:22:49;95448.19;;;15.32;100.00
22862;BME280;11598;50.652;6.172;2023-07-24T06:32:49;95448.34;;;15.30;100.00
22862;BME280;11598;50.652;6.172;2023-07-24T06:42:49;95448.53;;;15.29;100.00
22862;BME280;11598;50.652;6.172;2023-07-24T06:52:50;95432.84;;;15.29;100.00
22862;BME280;11598;50.652;6.172;2023-07-24T07:02:52;95423.84;;;15.31;100.00
22862;BME280;11598;50.652;6.172;2023-07-24T07:12:52;95410.19;;;15.44;100.00
22862;BME280;11598;50.652;6.172;2023-07-24T07:22:52;95418.22;;;15.42;100.00
22862;BME280;11598;50.652;6.172;2023-07-24T07:32:53;95424.03;;;15.61;100.00
22862;BME280;11598;50.652;6.172;2023-07-24T07:42:54;95435.03;;;15.96;100.00
22862;BME280;11598;50.652;6.172;2023-07-24T07:52:54;95435.91;;;16.57;100.00
22862;BME280;11598;50.652;6.172;2023-07-24T08:02:54;95410.69;;;17.53;100.00
22862;BME280;11598;50.652;6.172;2023-07-24T08:12:55;95387.41;;;17.65;100.00
22862;BME280;11598;50.652;6.172;2023-07-24T08:22:55;95390.31;;;19.34;100.00
22862;BME280;11598;50.652;6.172;2023-07-24T08:32:55;95405.78;;;19.51;100.00
22862;BME280;11598;50.652;6.172;2023-07-24T08:42:57;95395.63;;;19.06;98.40
22862;BME280;11598;50.652;6.172;2023-07-24T08:52:57;95392.13;;;18.49;98.47
22862;BME280;11598;50.652;6.172;2023-07-24T09:02:58;95375.28;;;18.01;99.87
22862;BME280;11598;50.652;6.172;2023-07-24T09:12:58;95362.28;;;17.92;99.98
22862;BME280;11598;50.652;6.172;2023-07-24T09:22:59;95349.72;;;18.09;99.47
22862;BME280;11598;50.652;6.172;2023-07-24T09:32:59;95336.59;;;18.37;100.00
22862;BME280;11598;50.652;6.172;2023-07-24T09:42:59;95296.56;;;18.98;97.79
22862;BME280;11598;50.652;6.172;2023-07-24T09:53:00;95279.22;;;19.17;96.15
22862;BME280;11598;50.652;6.172;2023-07-24T10:03:01;95274.56;;;19.74;93.35
22862;BME280;11598;50.652;6.172;2023-07-24T10:13:03;95268.09;;;19.83;93.93
22862;BME280;11598;50.652;6.172;2023-07-24T10:23:05;95277.38;;;19.66;92.83
22862;BME280;11598;50.652;6.172;2023-07-24T10:33:10;95269.00;;;19.42;95.54
22862;BME280;11598;50.652;6.172;2023-07-24T10:43:21;95232.47;;;19.33;94.45
22862;BME280;11598;50.652;6.172;2023-07-24T10:53:22;95273.53;;;18.72;97.77
22862;BME280;11598;50.652;6.172;2023-07-24T11:03:23;95288.31;;;19.08;96.65
22862;BME280;11598;50.652;6.172;2023-07-24T11:13:25;95279.06;;;20.14;92.81
22862;BME280;11598;50.652;6.172;2023-07-24T11:23:27;95296.50;;;20.48;91.25
22862;BME280;11598;50.652;6.172;2023-07-24T11:33:27;95291.63;;;20.32;91.60
22862;BME280;11598;50.652;6.172;2023-07-24T11:43:28;95292.56;;;19.09;99.11
22862;BME280;11598;50.652;6.172;2023-07-24T11:53:30;95270.19;;;18.57;100.00
22862;BME280;11598;50.652;6.172;2023-07-24T12:03:30;95260.78;;;18.76;100.00
22862;BME280;11598;50.652;6.172;2023-07-24T12:13:31;95287.34;;;18.53;100.00
22862;BME280;11598;50.652;6.172;2023-07-24T12:23:32;95285.53;;;18.25;100.00
22862;BME280;11598;50.652;6.172;2023-07-24T12:33:32;95276.81;;;18.25;100.00
22862;BME280;11598;50.652;6.172;2023-07-24T12:43:32;95266.50;;;18.23;99.18
22862;BME280;11598;50.652;6.172;2023-07-24T12:53:33;95247.03;;;18.46;93.25
22862;BME280;11598;50.652;6.172;2023-07-24T13:03:33;95296.88;;;18.26;87.86
22862;BME280;11598;50.652;6.172;2023-07-24T13:13:33;95356.03;;;17.27;95.45
22862;BME280;11598;50.652;6.172;2023-07-24T13:23:36;95375.88;;;16.24;100.00
22862;BME280;11598;50.652;6.172;2023-07-24T13:33:37;95389.09;;;15.85;100.00
22862;BME280;11598;50.652;6.172;2023-07-24T13:43:37;95382.28;;;15.76;100.00
22862;BME280;11598;50.652;6.172;2023-07-24T13:53:37;95386.38;;;15.70;100.00
22862;BME280;11598;50.652;6.172;2023-07-24T14:03:38;95368.69;;;15.72;100.00
22862;BME280;11598;50.652;6.172;2023-07-24T14:13:38;95358.59;;;15.92;100.00
22862;BME280;11598;50.652;6.172;2023-07-24T14:23:38;95351.22;;;16.34;100.00
22862;BME280;11598;50.652;6.172;2023-07-24T14:33:39;95352.91;;;16.49;100.00
22862;BME280;11598;50.652;6.172;2023-07-24T14:43:42;95341.25;;;16.52;100.00
22862;BME280;11598;50.652;6.172;2023-07-24T14:53:42;95346.47;;;16.37;100.00
22862;BME280;11598;50.652;6.172;2023-07-24T15:03:43;95346.19;;;16.32;100.00
22862;BME280;11598;50.652;6.172;2023-07-24T15:13:43;95344.66;;;16.38;100.00
22862;BME280;11598;50.652;6.172;2023-07-24T15:23:43;95345.66;;;16.37;100.00
22862;BME280;11598;50.652;6.172;2023-07-24T15:33:43;95354.84;;;16.33;100.00
22862;BME280;11598;50.652;6.172;2023-07-24T15:43:44;95365.22;;;16.03;100.00
22862;BME280;11598;50.652;6.172;2023-07-24T15:53:44;95383.63;;;15.95;100.00
22862;BME280;11598;50.652;6.172;2023-07-24T16:03:46;95388.69;;;15.73;100.00
22862;BME280;11598;50.652;6.172;2023-07-24T16:13:46;95394.25;;;15.70;100.00
22862;BME280;11598;50.652;6.172;2023-07-24T16:23:46;95410.88;;;15.77;100.00
22862;BME280;11598;50.652;6.172;2023-07-24T16:33:47;95411.59;;;15.71;100.00
22862;BME280;11598;50.652;6.172;2023-07-24T16:43:47;95425.06;;;15.52;100.00
22862;BME280;11598;50.652;6.172;2023-07-24T16:53:47;95436.06;;;15.39;100.00
22862;BME280;11598;50.652;6.172;2023-07-24T17:03:48;95431.00;;;15.37;100.00
22862;BME280;11598;50.652;6.172;2023-07-24T17:13:49;95435.78;;;15.34;100.00
22862;BME280;11598;50.652;6.172;2023-07-24T17:23:49;95435.16;;;15.15;100.00
22862;BME280;11598;50.652;6.172;2023-07-24T17:33:49;95431.09;;;15.05;100.00
22862;BME280;11598;50.652;6.172;2023-07-24T17:43:50;95438.19;;;14.79;100.00
22862;BME280;11598;50.652;6.172;2023-07-24T17:53:50;95477.16;;;14.48;100.00
22862;BME280;11598;50.652;6.172;2023-07-24T18:03:50;95479.75;;;14.07;100.00
22862;BME280;11598;50.652;6.172;2023-07-24T18:13:52;95475.41;;;13.82;100.00
22862;BME280;11598;50.652;6.172;2023-07-24T18:23:52;95490.53;;;13.62;100.00
22862;BME280;11598;50.652;6.172;2023-07-24T18:33:53;95512.59;;;13.41;100.00
22862;BME280;11598;50.652;6.172;2023-07-24T18:43:54;95521.44;;;13.22;100.00
22862;BME280;11598;50.652;6.172;2023-07-24T18:53:54;95530.63;;;13.08;100.00
22862;BME280;11598;50.652;6.172;2023-07-24T19:03:54;95531.22;;;13.02;100.00
22862;BME280;11598;50.652;6.172;2023-07-24T19:13:55;95541.81;;;13.01;100.00
22862;BME280;11598;50.652;6.172;2023-07-24T19:23:55;95548.44;;;12.95;100.00
22862;BME280;11598;50.652;6.172;2023-07-24T19:33:55;95549.19;;;12.87;100.00
22862;BME280;11598;50.652;6.172;2023-07-24T19:43:56;95560.75;;;12.85;100.00
22862;BME280;11598;50.652;6.172;2023-07-24T19:53:56;95554.84;;;12.83;100.00
22862;BME280;11598;50.652;6.172;2023-07-24T20:03:56;95576.38;;;12.85;100.00
22862;BME280;11598;50.652;6.172;2023-07-24T20:13:57;95575.25;;;12.87;100.00
22862;BME280;11598;50.652;6.172;2023-07-24T20:24:11;95577.19;;;12.85;100.00
22862;BME280;11598;50.652;6.172;2023-07-24T20:34:12;95575.72;;;12.83;100.00
22862;BME280;11598;50.652;6.172;2023-07-24T20:44:12;95578.72;;;12.70;100.00
22862;BME280;11598;50.652;6.172;2023-07-24T20:54:12;95577.66;;;12.63;100.00
22862;BME280;11598;50.652;6.172;2023-07-24T21:04:13;95581.00;;;12.73;100.00
22862;BME280;11598;50.652;6.172;2023-07-24T21:14:13;95590.53;;;12.82;100.00
22862;BME280;11598;50.652;6.172;2023-07-24T21:24:13;95595.81;;;12.90;100.00
22862;BME280;11598;50.652;6.172;2023-07-24T21:34:13;95596.19;;;12.96;100.00
22862;BME280;11598;50.652;6.172;2023-07-24T21:44:14;95597.97;;;12.95;100.00
22862;BME280;11598;50.652;6.172;2023-07-24T21:54:14;95591.28;;;12.93;100.00
22862;BME280;11598;50.652;6.172;2023-07-24T22:04:14;95594.56;;;12.95;100.00
22862;BME280;11598;50.652;6.172;2023-07-24T22:14:15;95593.97;;;13.01;100.00
22862;BME280;11598;50.652;6.172;2023-07-24T22:24:15;95590.91;;;13.05;100.00
22862;BME280;11598;50.652;6.172;2023-07-24T22:34:15;95597.59;;;13.08;100.00
22862;BME280;11598;50.652;6.172;2023-07-24T22:44:16;95585.88;;;13.12;100.00
22862;BME280;11598;50.652;6.172;2023-07-24T22:54:16;95577.25;;;13.11;100.00
22862;BME280;11598;50.652;6.172;2023-07-24T23:04:17;95570.41;;;13.10;100.00
22862;BME280;11598;50.652;6.172;2023-07-24T23:14:17;95561.25;;;13.06;100.00
22862;BME280;11598;50.652;6.172;2023-07-24T23:24:17;95581.97;;;12.90;100.00
22862;BME280;11598;50.652;6.172;2023-07-24T23:34:18;95586.69;;;12.86;100.00
22862;BME280;11598;50.652;6.172;2023-07-24T23:44:18;95578.25;;;12.75;100.00
22862;BME280;11598;50.652;6.172;2023-07-24T23:54:19;95583.06;;;12.69;100.00
